createdAt,value
2019-05-09T00:00:43.857Z,9.50
2019-05-09T00:03:13.825Z,9.50
2019-05-09T00:05:44.093Z,9.50
2019-05-09T00:08:13.958Z,9.40
2019-05-09T00:10:45.032Z,9.40
2019-05-09T00:13:13.738Z,9.40
2019-05-09T00:15:43.732Z,9.40
2019-05-09T00:18:14.274Z,9.30
2019-05-09T00:20:50.025Z,9.40
2019-05-09T00:23:18.564Z,9.30
2019-05-09T00:25:47.025Z,9.30
2019-05-09T00:28:15.475Z,9.30
2019-05-09T00:33:30.251Z,9.30
2019-05-09T00:36:00.267Z,9.20
2019-05-09T00:38:30.424Z,9.20
2019-05-09T00:40:59.226Z,9.20
2019-05-09T00:43:28.036Z,9.20
2019-05-09T00:46:00.841Z,9.20
2019-05-09T00:48:44.433Z,9.20
2019-05-09T00:51:14.045Z,9.10
2019-05-09T00:53:44.411Z,9.10
2019-05-09T00:56:13.498Z,9.10
2019-05-09T00:58:44.050Z,9.10
2019-05-09T01:01:13.659Z,9.10
2019-05-09T01:03:43.250Z,9.10
2019-05-09T01:06:13.408Z,9.10
2019-05-09T01:08:44.090Z,9.10
2019-05-09T01:11:15.469Z,9.00
2019-05-09T01:13:43.443Z,9.00
2019-05-09T01:16:13.412Z,9.10
2019-05-09T01:18:43.699Z,9.00
2019-05-09T01:21:13.397Z,9.00
2019-05-09T01:23:43.609Z,9.00
2019-05-09T01:26:13.237Z,9.00
2019-05-09T01:28:44.082Z,9.00
2019-05-09T01:31:13.259Z,9.00
2019-05-09T01:33:49.310Z,8.90
2019-05-09T01:36:17.901Z,8.90
2019-05-09T01:38:46.396Z,8.90
2019-05-09T01:41:26.743Z,8.90
2019-05-09T01:43:46.739Z,8.90
2019-05-09T01:46:15.191Z,8.90
2019-05-09T01:48:43.750Z,8.90
2019-05-09T01:51:13.912Z,8.90
2019-05-09T01:53:46.724Z,8.80
2019-05-09T01:56:15.249Z,8.80
2019-05-09T01:58:43.780Z,8.80
2019-05-09T02:01:13.428Z,8.70
2019-05-09T02:03:44.321Z,8.70
2019-05-09T02:06:33.311Z,8.70
2019-05-09T02:09:03.556Z,8.70
2019-05-09T02:11:41.691Z,8.70
2019-05-09T02:14:04.131Z,8.70
2019-05-09T02:16:37.105Z,8.60
2019-05-09T02:19:13.687Z,8.60
2019-05-09T02:21:43.713Z,8.60
2019-05-09T02:24:14.034Z,8.60
2019-05-09T02:26:43.938Z,8.50
2019-05-09T02:29:33.778Z,8.50
2019-05-09T02:32:04.528Z,8.50
2019-05-09T02:34:35.495Z,8.50
2019-05-09T02:37:02.895Z,8.50
2019-05-09T02:39:31.373Z,8.40
2019-05-09T02:42:08.676Z,8.40
2019-05-09T02:44:30.069Z,8.40
2019-05-09T02:47:02.866Z,8.40
2019-05-09T02:49:31.386Z,8.30
2019-05-09T02:51:59.915Z,8.40
2019-05-09T02:54:29.808Z,8.30
2019-05-09T02:56:58.627Z,8.30
2019-05-09T02:59:29.816Z,8.30
2019-05-09T03:02:02.978Z,8.20
2019-05-09T03:04:31.503Z,8.20
2019-05-09T03:07:00.122Z,8.20
2019-05-09T03:09:28.947Z,8.20
2019-05-09T03:11:59.051Z,8.20
2019-05-09T03:14:28.863Z,8.10
2019-05-09T03:16:58.683Z,8.20
2019-05-09T03:19:29.686Z,8.20
2019-05-09T03:22:19.060Z,8.10
2019-05-09T03:24:48.596Z,8.10
2019-05-09T03:27:18.995Z,8.10
2019-05-09T03:29:52.115Z,8.10
2019-05-09T03:32:20.646Z,8.00
2019-05-09T03:34:49.161Z,8.00
2019-05-09T03:37:17.825Z,8.00
2019-05-09T03:39:47.804Z,8.00
2019-05-09T03:42:21.240Z,8.00
2019-05-09T03:44:47.720Z,8.00
2019-05-09T03:47:17.987Z,8.00
2019-05-09T03:49:48.107Z,7.90
2019-05-09T03:52:17.756Z,7.90
2019-05-09T03:54:47.724Z,7.90
2019-05-09T03:57:18.061Z,7.90
2019-05-09T03:59:48.103Z,8.00
2019-05-09T04:02:38.276Z,7.90
2019-05-09T04:05:08.098Z,7.90
2019-05-09T04:07:38.390Z,7.90
2019-05-09T04:10:07.827Z,8.00
2019-05-09T04:12:59.343Z,7.90
2019-05-09T04:15:27.485Z,7.90
2019-05-09T04:17:57.893Z,8.00
2019-05-09T04:20:27.689Z,7.90
2019-05-09T04:22:59.341Z,7.90
2019-05-09T04:25:28.184Z,7.90
2019-05-09T04:27:58.338Z,8.00
2019-05-09T04:30:27.422Z,8.10
2019-05-09T04:32:58.018Z,8.10
2019-05-09T04:35:27.997Z,8.10
2019-05-09T04:37:58.367Z,8.10
2019-05-09T04:40:31.635Z,8.10
2019-05-09T04:43:08.899Z,8.10
2019-05-09T04:45:40.216Z,8.10
2019-05-09T04:48:04.906Z,8.10
2019-05-09T04:50:33.363Z,8.20
2019-05-09T04:53:01.832Z,8.30
2019-05-09T04:55:31.954Z,8.30
2019-05-09T04:58:00.433Z,8.30
2019-05-09T05:00:47.993Z,8.40
2019-05-09T05:03:18.330Z,8.50
2019-05-09T05:05:48.170Z,8.50
2019-05-09T05:08:18.110Z,8.60
2019-05-09T05:10:47.772Z,8.60
2019-05-09T05:13:25.774Z,8.70
2019-05-09T05:15:47.510Z,8.70
2019-05-09T05:18:17.375Z,8.80
2019-05-09T05:20:48.135Z,8.90
2019-05-09T05:23:18.303Z,9.00
2019-05-09T05:25:47.544Z,9.00
2019-05-09T05:28:17.650Z,9.00
2019-05-09T05:30:47.729Z,9.00
2019-05-09T05:33:30.136Z,9.00
2019-05-09T05:36:00.372Z,9.00
2019-05-09T05:38:29.678Z,9.20
2019-05-09T05:40:58.151Z,9.30
2019-05-09T05:43:38.560Z,9.40
2019-05-09T05:45:58.548Z,9.50
2019-05-09T05:48:35.209Z,9.60
2019-05-09T05:51:03.679Z,9.70
2019-05-09T05:53:32.164Z,9.90
2019-05-09T05:56:00.904Z,10.00
2019-05-09T05:58:29.408Z,10.10
2019-05-09T06:00:58.852Z,10.10
2019-05-09T06:03:28.347Z,10.20
2019-05-09T06:05:58.490Z,10.30
2019-05-09T06:08:27.631Z,10.50
2019-05-09T06:10:57.622Z,10.60
2019-05-09T06:13:27.550Z,10.80
2019-05-09T06:15:58.460Z,10.90
2019-05-09T06:18:27.602Z,11.00
2019-05-09T06:20:58.299Z,11.20
2019-05-09T06:23:28.267Z,11.30
2019-05-09T06:25:58.835Z,11.30
2019-05-09T06:28:27.504Z,11.40
2019-05-09T06:30:58.325Z,11.50
2019-05-09T06:33:28.428Z,11.70
2019-05-09T06:35:58.674Z,11.80
2019-05-09T06:38:28.203Z,12.10
2019-05-09T06:40:58.113Z,12.30
2019-05-09T06:43:29.114Z,12.30
2019-05-09T06:46:08.339Z,12.40
2019-05-09T06:48:38.549Z,12.50
2019-05-09T06:51:07.413Z,12.60
2019-05-09T06:53:38.019Z,12.70
2019-05-09T06:56:07.403Z,12.80
2019-05-09T06:58:38.326Z,12.80
2019-05-09T07:01:08.911Z,13.00
2019-05-09T07:03:39.023Z,13.30
2019-05-09T07:06:28.171Z,13.50
2019-05-09T07:09:09.649Z,13.60
2019-05-09T07:11:38.310Z,13.60
2019-05-09T07:14:08.533Z,13.90
2019-05-09T07:16:37.645Z,14.10
2019-05-09T07:19:07.960Z,14.20
2019-05-09T07:21:54.499Z,14.20
2019-05-09T07:24:23.508Z,14.20
2019-05-09T07:26:51.968Z,14.20
2019-05-09T07:29:20.428Z,14.40
2019-05-09T07:34:35.100Z,14.50
2019-05-09T07:37:03.645Z,14.60
2019-05-09T07:39:32.107Z,14.90
2019-05-09T07:42:00.596Z,15.40
2019-05-09T07:44:44.250Z,15.60
2019-05-09T07:47:00.894Z,15.60
2019-05-09T07:49:30.031Z,15.50
2019-05-09T07:52:06.147Z,15.00
2019-05-09T07:54:29.428Z,15.10
2019-05-09T07:56:58.324Z,14.80
2019-05-09T07:59:27.436Z,14.50
2019-05-09T08:01:58.202Z,14.40
2019-05-09T08:04:28.644Z,14.40
2019-05-09T08:06:57.674Z,14.60
2019-05-09T08:09:28.168Z,14.70
2019-05-09T08:12:17.967Z,14.60
2019-05-09T08:14:55.340Z,14.60
2019-05-09T08:17:18.101Z,14.70
2019-05-09T08:19:48.350Z,15.10
2019-05-09T08:22:21.268Z,15.40
2019-05-09T08:25:08.235Z,15.50
2019-05-09T08:27:37.790Z,16.20
2019-05-09T08:30:08.121Z,16.30
2019-05-09T08:32:37.796Z,16.70
2019-05-09T08:35:08.268Z,16.70
2019-05-09T08:37:39.093Z,16.20
2019-05-09T08:40:08.223Z,16.50
2019-05-09T08:42:37.862Z,17.20
2019-05-09T08:45:17.422Z,17.80
2019-05-09T08:47:38.061Z,18.20
2019-05-09T08:50:22.084Z,17.70
2019-05-09T08:52:50.578Z,16.70
2019-05-09T08:55:19.028Z,16.00
2019-05-09T08:57:48.158Z,15.90
2019-05-09T09:00:18.943Z,15.70
2019-05-09T09:02:48.284Z,15.70
2019-05-09T09:05:19.992Z,15.60
2019-05-09T09:07:49.266Z,15.70
2019-05-09T09:10:18.810Z,16.90
2019-05-09T09:12:47.865Z,18.50
2019-05-09T09:15:18.020Z,19.30
2019-05-09T09:17:49.121Z,19.60
2019-05-09T09:20:18.226Z,18.90
2019-05-09T09:22:48.027Z,17.70
2019-05-09T09:25:18.370Z,17.70
2019-05-09T09:27:50.740Z,18.00
2019-05-09T09:30:24.792Z,17.90
2019-05-09T09:32:48.135Z,17.50
2019-05-09T09:35:18.761Z,17.10
2019-05-09T09:37:51.408Z,17.30
2019-05-09T09:40:17.838Z,17.20
2019-05-09T09:42:48.797Z,17.00
2019-05-09T09:45:18.330Z,16.90
2019-05-09T09:47:48.244Z,17.10
2019-05-09T09:50:17.812Z,16.90
2019-05-09T09:52:49.030Z,16.90
2019-05-09T09:55:18.505Z,16.90
2019-05-09T09:58:08.225Z,16.70
2019-05-09T10:00:43.894Z,16.80
2019-05-09T10:03:12.416Z,16.80
2019-05-09T10:05:40.953Z,16.70
2019-05-09T10:08:13.885Z,16.50
2019-05-09T10:10:39.794Z,16.60
2019-05-09T10:13:10.768Z,16.40
2019-05-09T10:15:43.012Z,16.00
2019-05-09T10:18:18.096Z,15.80
2019-05-09T10:20:50.443Z,15.70
2019-05-09T10:23:21.643Z,15.60
2019-05-09T10:25:49.088Z,15.50
2019-05-09T10:28:21.325Z,15.40
2019-05-09T10:30:48.509Z,15.40
2019-05-09T10:33:17.638Z,15.40
2019-05-09T10:35:47.904Z,15.40
2019-05-09T10:38:18.461Z,15.40
2019-05-09T10:40:48.496Z,15.40
2019-05-09T10:43:38.794Z,15.40
2019-05-09T10:46:19.204Z,15.30
2019-05-09T10:48:53.018Z,15.30
2019-05-09T10:51:21.509Z,15.50
2019-05-09T10:53:49.969Z,15.50
2019-05-09T10:56:18.881Z,15.50
2019-05-09T10:58:48.320Z,15.70
2019-05-09T11:01:18.490Z,15.90
2019-05-09T11:03:48.293Z,16.00
2019-05-09T11:06:18.336Z,16.20
2019-05-09T11:08:47.885Z,16.50
2019-05-09T11:11:18.225Z,16.50
2019-05-09T11:13:48.232Z,16.50
2019-05-09T11:16:18.391Z,16.50
2019-05-09T11:18:48.460Z,16.40
2019-05-09T11:21:19.180Z,16.30
2019-05-09T11:23:48.972Z,16.20
2019-05-09T11:26:18.112Z,15.90
2019-05-09T11:28:46.833Z,15.80
2019-05-09T11:31:17.994Z,15.70
2019-05-09T11:33:48.130Z,15.70
2019-05-09T11:36:20.805Z,15.60
2019-05-09T11:38:49.102Z,15.50
2019-05-09T11:41:18.873Z,15.50
2019-05-09T11:43:48.541Z,15.50
2019-05-09T11:46:18.046Z,15.50
2019-05-09T11:48:47.036Z,15.50
2019-05-09T11:51:20.511Z,15.50
2019-05-09T11:53:48.351Z,15.60
2019-05-09T11:56:17.957Z,15.70
2019-05-09T11:58:48.074Z,15.90
2019-05-09T12:01:18.946Z,16.00
2019-05-09T12:03:49.881Z,16.20
2019-05-09T12:06:19.965Z,16.30
2019-05-09T12:08:48.344Z,16.30
2019-05-09T12:11:18.178Z,16.40
2019-05-09T12:13:48.579Z,16.50
2019-05-09T12:16:18.507Z,16.40
2019-05-09T12:18:48.832Z,16.30
2019-05-09T12:21:19.096Z,16.20
2019-05-09T12:23:48.835Z,16.60
2019-05-09T12:26:17.948Z,17.00
2019-05-09T12:28:48.320Z,17.20
2019-05-09T12:31:18.200Z,17.20
2019-05-09T12:33:48.250Z,17.10
2019-05-09T12:36:19.328Z,16.90
2019-05-09T12:38:49.932Z,16.90
2019-05-09T12:41:19.200Z,16.90
2019-05-09T12:43:48.136Z,17.00
2019-05-09T12:46:16.692Z,17.20
2019-05-09T12:48:47.883Z,17.90
2019-05-09T12:51:18.384Z,17.70
2019-05-09T12:53:48.542Z,17.50
2019-05-09T12:56:20.390Z,17.40
2019-05-09T12:58:48.967Z,17.50
2019-05-09T13:01:18.800Z,17.60
2019-05-09T13:03:48.395Z,17.60
2019-05-09T13:06:20.047Z,17.50
2019-05-09T13:08:48.103Z,17.50
2019-05-09T13:11:19.006Z,17.30
2019-05-09T13:13:47.989Z,17.30
2019-05-09T13:16:47.491Z,17.70
2019-05-09T13:19:08.164Z,17.90
2019-05-09T13:21:38.903Z,18.10
2019-05-09T13:24:08.358Z,18.40
2019-05-09T13:26:38.474Z,19.00
2019-05-09T13:29:08.074Z,19.50
2019-05-09T13:31:39.142Z,19.20
2019-05-09T13:34:08.143Z,19.20
2019-05-09T13:36:36.916Z,18.60
2019-05-09T13:39:27.838Z,18.40
2019-05-09T13:41:58.227Z,18.70
2019-05-09T13:44:27.753Z,19.40
2019-05-09T13:46:58.432Z,19.90
2019-05-09T13:49:28.569Z,19.40
2019-05-09T13:52:01.239Z,19.00
2019-05-09T13:54:28.491Z,18.80
2019-05-09T13:57:00.934Z,18.50
2019-05-09T13:59:30.002Z,18.40
2019-05-09T14:01:58.138Z,18.40
2019-05-09T14:04:28.603Z,18.60
2019-05-09T14:06:57.220Z,19.30
2019-05-09T14:09:28.844Z,19.90
2019-05-09T14:11:58.611Z,20.10
2019-05-09T14:14:28.128Z,20.10
2019-05-09T14:16:58.989Z,19.50
2019-05-09T14:19:39.687Z,18.90
2019-05-09T14:21:58.602Z,18.30
2019-05-09T14:24:27.903Z,18.00
2019-05-09T14:26:58.226Z,17.90
2019-05-09T14:29:31.422Z,17.70
2019-05-09T14:31:57.217Z,17.60
2019-05-09T14:34:25.716Z,17.50
2019-05-09T14:36:54.198Z,17.40
2019-05-09T14:39:22.975Z,17.50
2019-05-09T14:41:53.154Z,17.60
2019-05-09T14:44:21.605Z,17.60
2019-05-09T14:46:50.103Z,17.50
2019-05-09T14:49:18.734Z,17.10
2019-05-09T14:51:49.779Z,16.40
2019-05-09T14:54:17.633Z,16.00
2019-05-09T14:56:48.400Z,16.00
2019-05-09T14:59:18.452Z,16.20
2019-05-09T15:01:49.297Z,16.40
2019-05-09T15:04:18.862Z,16.70
2019-05-09T15:06:48.824Z,17.20
2019-05-09T15:09:18.220Z,17.60
2019-05-09T15:11:48.383Z,17.70
2019-05-09T15:14:18.138Z,17.50
2019-05-09T15:16:48.488Z,17.40
2019-05-09T15:19:18.051Z,17.60
2019-05-09T15:21:48.716Z,17.30
2019-05-09T15:24:19.241Z,17.30
2019-05-09T15:26:48.890Z,17.40
2019-05-09T15:29:17.495Z,17.30
2019-05-09T15:31:52.929Z,17.40
2019-05-09T15:34:18.483Z,17.50
2019-05-09T15:36:48.346Z,17.60
2019-05-09T15:39:18.386Z,17.60
2019-05-09T15:41:47.881Z,17.40
2019-05-09T15:44:18.615Z,17.10
2019-05-09T15:46:48.413Z,17.20
2019-05-09T15:49:18.324Z,17.20
2019-05-09T15:51:47.800Z,17.20
2019-05-09T15:54:17.798Z,17.10
2019-05-09T15:56:48.349Z,17.20
2019-05-09T15:59:18.192Z,17.30
2019-05-09T16:01:49.160Z,17.20
2019-05-09T16:04:17.815Z,17.30
2019-05-09T16:06:50.303Z,17.30
2019-05-09T16:09:17.994Z,17.20
2019-05-09T16:11:48.393Z,17.10
2019-05-09T16:14:18.497Z,17.10
2019-05-09T16:16:47.894Z,17.00
2019-05-09T16:19:16.631Z,16.90
2019-05-09T16:21:47.547Z,16.80
2019-05-09T16:24:18.498Z,16.80
2019-05-09T16:26:48.536Z,16.80
2019-05-09T16:29:17.827Z,16.70
2019-05-09T16:31:48.139Z,16.50
2019-05-09T16:34:17.742Z,16.50
2019-05-09T16:36:48.054Z,16.40
2019-05-09T16:39:17.967Z,16.30
2019-05-09T16:41:48.498Z,16.40
2019-05-09T16:44:18.297Z,16.40
2019-05-09T16:46:48.375Z,16.40
2019-05-09T16:49:19.697Z,16.40
2019-05-09T16:51:48.524Z,16.40
2019-05-09T16:54:18.033Z,16.40
2019-05-09T16:56:46.869Z,16.20
2019-05-09T16:59:17.751Z,16.10
2019-05-09T17:01:49.296Z,16.00
2019-05-09T17:04:18.891Z,16.10
2019-05-09T17:06:45.998Z,16.00
2019-05-09T17:09:14.554Z,16.00
2019-05-09T17:11:43.028Z,16.10
2019-05-09T17:14:11.508Z,16.10
2019-05-09T17:16:40.056Z,16.10
2019-05-09T17:19:08.580Z,16.20
2019-05-09T17:21:44.835Z,16.20
2019-05-09T17:24:15.003Z,16.00
2019-05-09T17:26:43.468Z,16.00
2019-05-09T17:29:12.011Z,16.00
2019-05-09T17:31:40.520Z,15.80
2019-05-09T17:34:09.087Z,15.70
2019-05-09T17:36:38.513Z,15.50
2019-05-09T17:39:08.068Z,15.40
2019-05-09T17:41:37.960Z,15.40
2019-05-09T17:44:07.643Z,15.50
2019-05-09T17:46:38.499Z,15.50
2019-05-09T17:49:08.291Z,15.50
2019-05-09T17:51:37.106Z,15.50
2019-05-09T17:54:08.099Z,15.50
2019-05-09T17:56:37.946Z,15.50
2019-05-09T17:59:25.626Z,15.50
2019-05-09T18:01:54.208Z,15.50
2019-05-09T18:04:22.787Z,15.40
2019-05-09T18:06:51.302Z,15.30
2019-05-09T18:09:19.843Z,15.30
2019-05-09T18:11:48.444Z,15.30
2019-05-09T18:14:18.509Z,15.20
2019-05-09T18:16:47.929Z,15.20
2019-05-09T18:19:17.833Z,15.20
2019-05-09T18:21:50.994Z,15.10
2019-05-09T18:24:17.626Z,15.00
2019-05-09T18:26:47.439Z,14.90
2019-05-09T18:29:18.158Z,14.80
2019-05-09T18:31:53.958Z,14.20
2019-05-09T18:34:22.469Z,13.70
2019-05-09T18:36:51.000Z,13.60
2019-05-09T18:39:20.521Z,13.50
2019-05-09T18:41:49.181Z,13.50
2019-05-09T18:44:18.298Z,13.30
2019-05-09T18:46:48.076Z,13.30
2019-05-09T18:49:16.875Z,13.30
2019-05-09T18:51:45.549Z,13.30
2019-05-09T18:54:14.208Z,13.30
2019-05-09T18:56:42.753Z,13.30
2019-05-09T18:59:11.326Z,13.40
2019-05-09T19:01:39.876Z,13.30
2019-05-09T19:04:08.451Z,13.30
2019-05-09T19:06:39.795Z,13.20
2019-05-09T19:09:07.556Z,13.20
2019-05-09T19:11:36.245Z,13.10
2019-05-09T19:14:06.739Z,13.10
2019-05-09T19:16:39.649Z,13.10
2019-05-09T19:19:15.876Z,13.10
2019-05-09T19:21:46.133Z,13.10
2019-05-09T19:24:14.776Z,13.10
2019-05-09T19:26:43.250Z,13.20
2019-05-09T19:29:11.805Z,13.20
2019-05-09T19:31:40.782Z,13.10
2019-05-09T19:34:09.487Z,13.20
2019-05-09T19:36:38.121Z,13.10
2019-05-09T19:39:08.044Z,13.20
2019-05-09T19:41:37.355Z,13.10
2019-05-09T19:44:05.969Z,13.10
2019-05-09T19:46:34.897Z,13.00
2019-05-09T19:49:03.605Z,13.00
2019-05-09T19:51:32.190Z,12.80
2019-05-09T19:54:00.695Z,12.90
2019-05-09T19:56:29.361Z,12.80
2019-05-09T19:58:57.975Z,12.70
2019-05-09T20:01:26.490Z,12.70
2019-05-09T20:03:55.079Z,12.60
2019-05-09T20:06:23.624Z,12.70
2019-05-09T20:08:52.253Z,12.60
2019-05-09T20:11:25.552Z,12.60
2019-05-09T20:13:58.293Z,12.60
2019-05-09T20:16:29.451Z,12.60
2019-05-09T20:18:58.202Z,12.50
2019-05-09T20:21:27.124Z,12.40
2019-05-09T20:23:55.925Z,12.30
2019-05-09T20:26:24.704Z,12.20
2019-05-09T20:28:53.410Z,12.20
2019-05-09T20:31:21.943Z,12.10
2019-05-09T20:33:50.487Z,12.00
2019-05-09T20:36:19.019Z,12.00
2019-05-09T20:38:47.747Z,12.00
2019-05-09T20:41:16.484Z,12.00
2019-05-09T20:43:45.206Z,12.00
2019-05-09T20:46:13.974Z,11.90
2019-05-09T20:48:42.771Z,11.80
2019-05-09T20:51:11.463Z,11.70
2019-05-09T20:53:40.122Z,11.70
2019-05-09T20:56:08.781Z,11.70
2019-05-09T20:58:37.532Z,11.60
2019-05-09T21:01:06.258Z,11.60
2019-05-09T21:03:35.028Z,11.60
2019-05-09T21:06:03.757Z,11.60
2019-05-09T21:08:32.938Z,11.60
2019-05-09T21:11:01.713Z,11.60
2019-05-09T21:13:30.436Z,11.60
2019-05-09T21:15:59.109Z,11.60
2019-05-09T21:18:27.822Z,11.70
2019-05-09T21:20:56.595Z,11.50
2019-05-09T21:23:25.333Z,11.60
2019-05-09T21:25:55.544Z,11.40
2019-05-09T21:28:24.267Z,11.40
2019-05-09T21:30:53.013Z,11.40
2019-05-09T21:33:21.688Z,11.40
2019-05-09T21:35:50.184Z,11.40
2019-05-09T21:38:18.676Z,11.40
2019-05-09T21:40:47.264Z,11.30
2019-05-09T21:43:15.805Z,11.20
2019-05-09T21:45:44.308Z,11.20
2019-05-09T21:48:12.801Z,11.10
2019-05-09T21:50:41.273Z,11.10
2019-05-09T21:53:09.740Z,11.10
2019-05-09T21:55:38.317Z,11.10
2019-05-09T21:58:06.828Z,11.00
2019-05-09T22:00:38.725Z,10.90
2019-05-09T22:03:07.841Z,10.90
2019-05-09T22:05:36.942Z,10.90
2019-05-09T22:08:05.592Z,11.00
2019-05-09T22:10:34.786Z,11.00
2019-05-09T22:13:03.345Z,11.00
2019-05-09T22:15:32.065Z,10.90
2019-05-09T22:18:00.586Z,10.90
2019-05-09T22:20:29.194Z,10.90
2019-05-09T22:22:57.678Z,10.90
2019-05-09T22:25:26.666Z,10.90
2019-05-09T22:27:55.415Z,10.90
2019-05-09T22:30:24.121Z,10.90
2019-05-09T22:32:52.663Z,10.90
2019-05-09T22:35:21.294Z,11.00
2019-05-09T22:37:49.832Z,11.00
2019-05-09T22:40:18.525Z,10.90
2019-05-09T22:42:47.085Z,10.90
2019-05-09T22:45:15.997Z,10.90
2019-05-09T22:47:44.568Z,10.90
2019-05-09T22:50:13.412Z,10.80
2019-05-09T22:52:42.034Z,10.80
2019-05-09T22:55:10.788Z,10.80
2019-05-09T22:57:39.346Z,10.70
2019-05-09T23:00:08.657Z,10.70
2019-05-09T23:02:37.365Z,10.70
2019-05-09T23:05:06.572Z,10.70
2019-05-09T23:07:35.212Z,10.80
2019-05-09T23:10:06.126Z,10.80
2019-05-09T23:12:34.775Z,10.80
2019-05-09T23:15:03.381Z,10.70
2019-05-09T23:17:31.927Z,10.70
2019-05-09T23:20:00.606Z,10.70
2019-05-09T23:22:30.764Z,10.70
2019-05-09T23:24:59.332Z,10.80
2019-05-09T23:27:27.952Z,10.80
2019-05-09T23:29:56.494Z,10.70
2019-05-09T23:32:26.700Z,10.70
2019-05-09T23:34:55.240Z,10.70
2019-05-09T23:37:23.784Z,10.70
2019-05-09T23:39:54.012Z,10.80
2019-05-09T23:42:22.606Z,10.80
2019-05-09T23:44:51.165Z,10.80
2019-05-09T23:47:19.679Z,10.70
2019-05-09T23:49:48.290Z,10.80
2019-05-09T23:52:16.872Z,10.80
2019-05-09T23:55:03.278Z,10.80
2019-05-09T23:57:49.957Z,10.80
